Terminal Aerodrome Forecast
Issued by NWS

Home | Current Version | Previous Version | Text Only | Print | Product List | Glossary Off
Versions: 1 2 3 4 5 6 7 8 9 10 11 12 13 14 15 16 17 18 19 20

000
FTUS43 KICT 181003 AAB
TAFRSL
TAF AMD
KRSL 181003Z 1810/1906 11004KT 3SM BR OVC002
     FM181600 19013KT P6SM OVC015
     FM181800 20013KT P6SM OVC025
     FM182000 20013KT P6SM OVC035=

USA.gov is the U.S. government's official web portal to all federal, state and local government web resources and services.